Time;durP1;ratioP1;P1;durP2;ratioP2;P2;SDS_P1;SDS_P2;PMS_P1;PMS_P2;Temp;Humidity;BMP_temperature;BMP_pressure;BME280_temperature;BME280_humidity;BME280_pressure;Samples;Min_cycle;Max_cycle;Signal;HPM_P1;HPM_P2
2024/01/16 00:00:51;;;;;;;4.67;4.20;;;;;;;;;;6079094;23;20432;-84
2024/01/16 00:03:27;;;;;;;7.53;4.77;;;;;;;;;;6104541;23;20421;-88
2024/01/16 00:05:54;;;;;;;13.57;5.90;;;;;;;;;;6102869;23;20386;-87
2024/01/16 00:08:25;;;;;;;8.50;5.10;;;;;;;;;;6077635;23;20508;-87
2024/01/16 00:10:52;;;;;;;5.37;4.80;;;;;;;;;;6076515;23;20413;-87
2024/01/16 00:13:20;;;;;;;7.60;5.03;;;;;;;;;;6076879;23;20417;-88
2024/01/16 00:15:49;;;;;;;6.47;4.57;;;;;;;;;;6078840;23;20476;-85
2024/01/16 00:18:24;;;;;;;7.60;4.93;;;;;;;;;;6075987;23;20444;-88
2024/01/16 00:20:58;;;;;;;6.20;5.13;;;;;;;;;;6074952;23;20479;-88
2024/01/16 00:23:27;;;;;;;6.57;5.53;;;;;;;;;;6075071;23;20397;-88
2024/01/16 00:25:57;;;;;;;11.43;5.43;;;;;;;;;;6109520;23;20397;-88
2024/01/16 00:28:27;;;;;;;8.97;5.07;;;;;;;;;;6080990;23;20529;-87
2024/01/16 00:31:10;;;;;;;13.00;5.50;;;;;;;;;;6078532;23;20432;-88
2024/01/16 00:33:39;;;;;;;7.30;5.63;;;;;;;;;;6076588;23;20409;-86
2024/01/16 00:36:10;;;;;;;6.63;5.27;;;;;;;;;;6076181;23;20720;-88
2024/01/16 00:38:38;;;;;;;9.77;5.63;;;;;;;;;;6078809;23;20457;-88
2024/01/16 00:41:06;;;;;;;7.53;4.77;;;;;;;;;;6089385;23;20416;-87
2024/01/16 00:43:35;;;;;;;8.27;5.60;;;;;;;;;;6094489;23;20425;-89
2024/01/16 00:46:05;;;;;;;6.53;5.40;;;;;;;;;;6093420;23;20418;-86
2024/01/16 00:48:37;;;;;;;7.37;4.80;;;;;;;;;;6078261;23;20950;-88
2024/01/16 00:51:05;;;;;;;7.80;5.23;;;;;;;;;;6076821;23;20418;-87
2024/01/16 00:53:42;;;;;;;5.93;5.27;;;;;;;;;;6078108;23;20408;-87
2024/01/16 00:56:16;;;;;;;7.47;5.00;;;;;;;;;;6077380;23;20485;-88
2024/01/16 00:58:46;;;;;;;6.17;5.57;;;;;;;;;;6103348;23;20511;-87
2024/01/16 01:01:16;;;;;;;7.57;5.00;;;;;;;;;;6079593;23;20416;-88
2024/01/16 01:03:44;;;;;;;7.20;5.70;;;;;;;;;;6115756;23;20394;-88
2024/01/16 01:06:15;;;;;;;9.87;6.20;;;;;;;;;;6080736;23;20455;-86
2024/01/16 01:08:45;;;;;;;7.13;5.33;;;;;;;;;;6077956;23;20424;-87
2024/01/16 01:11:15;;;;;;;6.80;5.00;;;;;;;;;;6079334;23;20939;-87
2024/01/16 01:13:42;;;;;;;7.37;5.33;;;;;;;;;;6078006;23;20406;-87
2024/01/16 01:16:16;;;;;;;7.37;5.50;;;;;;;;;;6076589;23;20449;-87
2024/01/16 01:18:50;;;;;;;6.70;4.57;;;;;;;;;;6077397;23;20436;-87
2024/01/16 01:21:22;;;;;;;10.00;5.50;;;;;;;;;;6078626;23;20427;-87
2024/01/16 01:23:53;;;;;;;7.83;5.00;;;;;;;;;;6079857;23;20411;-88
2024/01/16 01:26:32;;;;;;;5.23;4.73;;;;;;;;;;6080604;23;20427;-88
2024/01/16 01:29:02;;;;;;;5.50;4.90;;;;;;;;;;6079776;23;20456;-88
2024/01/16 01:31:36;;;;;;;6.10;4.77;;;;;;;;;;6080612;23;20442;-88
2024/01/16 01:34:04;;;;;;;5.17;4.30;;;;;;;;;;6109083;23;20393;-87
2024/01/16 01:36:35;;;;;;;8.97;5.00;;;;;;;;;;6078663;23;20441;-86
2024/01/16 01:39:04;;;;;;;6.10;4.40;;;;;;;;;;6117815;23;20426;-89
2024/01/16 01:41:38;;;;;;;7.50;4.20;;;;;;;;;;6097474;23;20417;-88
2024/01/16 01:44:15;;;;;;;5.00;3.80;;;;;;;;;;6116801;23;20473;-84
2024/01/16 01:46:45;;;;;;;4.97;3.70;;;;;;;;;;6081309;23;20493;-88
2024/01/16 01:49:26;;;;;;;6.27;3.37;;;;;;;;;;6080789;23;20497;-86
2024/01/16 01:51:54;;;;;;;8.27;3.90;;;;;;;;;;6075068;23;20408;-87
2024/01/16 01:54:27;;;;;;;5.63;3.80;;;;;;;;;;6102848;23;21043;-87
2024/01/16 01:56:57;;;;;;;5.03;3.67;;;;;;;;;;6076431;23;20483;-87
2024/01/16 01:59:27;;;;;;;5.57;4.20;;;;;;;;;;6076877;23;20492;-87
2024/01/16 02:01:55;;;;;;;6.27;4.40;;;;;;;;;;6074491;23;20436;-86
2024/01/16 02:04:25;;;;;;;6.23;4.67;;;;;;;;;;6074962;23;20512;-86
2024/01/16 02:06:56;;;;;;;6.90;4.40;;;;;;;;;;6091864;23;20428;-89
2024/01/16 02:09:29;;;;;;;5.73;4.57;;;;;;;;;;6096598;23;20430;-88
2024/01/16 02:11:56;;;;;;;6.53;4.60;;;;;;;;;;6085147;23;20412;-88
2024/01/16 02:14:28;;;;;;;5.47;4.87;;;;;;;;;;6086103;23;20422;-88
2024/01/16 02:16:56;;;;;;;6.03;5.27;;;;;;;;;;6084311;23;20413;-89
2024/01/16 02:19:28;;;;;;;5.70;4.70;;;;;;;;;;6083564;23;20445;-90
2024/01/16 02:22:00;;;;;;;13.27;6.13;;;;;;;;;;6085548;23;20492;-87
2024/01/16 02:24:28;;;;;;;7.17;5.10;;;;;;;;;;6083406;23;20420;-87
2024/01/16 02:26:56;;;;;;;7.73;5.60;;;;;;;;;;6094701;23;20413;-86
2024/01/16 02:29:27;;;;;;;6.93;6.10;;;;;;;;;;6098453;23;20501;-87
2024/01/16 02:31:55;;;;;;;6.90;5.53;;;;;;;;;;6098657;23;20433;-89
2024/01/16 02:34:38;;;;;;;6.43;4.90;;;;;;;;;;6091793;23;20410;-86
2024/01/16 02:37:11;;;;;;;10.93;5.77;;;;;;;;;;6084725;23;20419;-85
2024/01/16 02:39:42;;;;;;;12.57;5.40;;;;;;;;;;6083198;23;20440;-87
2024/01/16 02:42:14;;;;;;;11.30;5.53;;;;;;;;;;6082196;23;20413;-87
2024/01/16 02:44:44;;;;;;;7.60;4.27;;;;;;;;;;6082428;23;20965;-86
2024/01/16 02:47:17;;;;;;;7.13;5.00;;;;;;;;;;6081171;23;20413;-89
2024/01/16 02:49:53;;;;;;;7.07;5.43;;;;;;;;;;6081520;23;20441;-89
2024/01/16 02:52:21;;;;;;;5.87;5.27;;;;;;;;;;6080516;23;20436;-86
2024/01/16 02:54:52;;;;;;;9.43;5.00;;;;;;;;;;6080916;23;20444;-87
2024/01/16 02:57:22;;;;;;;7.60;4.67;;;;;;;;;;6080843;23;20431;-87
2024/01/16 02:59:52;;;;;;;8.53;5.70;;;;;;;;;;6081454;23;20447;-89
2024/01/16 03:02:22;;;;;;;9.10;4.00;;;;;;;;;;6081236;23;20590;-87
2024/01/16 03:04:50;;;;;;;8.90;4.93;;;;;;;;;;6107063;23;20838;-88
2024/01/16 03:07:18;;;;;;;6.27;5.23;;;;;;;;;;6081991;23;20491;-89
2024/01/16 03:09:46;;;;;;;15.20;5.50;;;;;;;;;;6089930;23;20443;-87
2024/01/16 03:12:23;;;;;;;4.90;4.33;;;;;;;;;;6113044;23;20418;-87
2024/01/16 03:14:55;;;;;;;6.33;4.60;;;;;;;;;;6080700;23;20414;-87
2024/01/16 03:17:23;;;;;;;8.03;4.63;;;;;;;;;;6079167;23;20381;-89
2024/01/16 03:19:50;;;;;;;6.20;4.40;;;;;;;;;;6078468;23;21198;-88
2024/01/16 03:22:20;;;;;;;8.50;4.93;;;;;;;;;;6099547;23;20492;-88
2024/01/16 03:24:49;;;;;;;10.60;5.20;;;;;;;;;;6100451;23;20421;-87
2024/01/16 03:27:16;;;;;;;7.10;5.40;;;;;;;;;;6078018;23;20408;-89
2024/01/16 03:29:46;;;;;;;13.00;5.03;;;;;;;;;;6086262;23;20469;-87
2024/01/16 03:32:15;;;;;;;12.20;5.13;;;;;;;;;;6078305;23;20773;-87
2024/01/16 03:34:45;;;;;;;6.07;4.10;;;;;;;;;;6078560;23;20876;-88
2024/01/16 03:37:16;;;;;;;13.43;5.43;;;;;;;;;;6082262;23;20413;-86
2024/01/16 03:39:44;;;;;;;8.90;5.10;;;;;;;;;;6091836;23;20440;-87
2024/01/16 03:42:12;;;;;;;8.00;5.03;;;;;;;;;;6089138;23;20432;-86
2024/01/16 03:44:42;;;;;;;9.77;5.63;;;;;;;;;;6082631;23;20755;-87
2024/01/16 03:47:12;;;;;;;6.07;5.07;;;;;;;;;;6107630;23;20393;-87
2024/01/16 03:49:42;;;;;;;10.70;5.70;;;;;;;;;;6084241;23;20437;-88
2024/01/16 03:52:18;;;;;;;6.77;4.83;;;;;;;;;;6111254;23;20411;-89
2024/01/16 03:54:48;;;;;;;9.27;5.73;;;;;;;;;;6083723;23;20420;-89
2024/01/16 03:57:28;;;;;;;7.17;5.87;;;;;;;;;;6085061;23;20405;-88
2024/01/16 03:59:55;;;;;;;7.43;5.13;;;;;;;;;;6082102;23;20451;-89
2024/01/16 04:02:23;;;;;;;9.23;5.40;;;;;;;;;;6106795;23;20409;-88
2024/01/16 04:04:53;;;;;;;7.90;5.77;;;;;;;;;;6081941;23;20421;-88
2024/01/16 04:07:26;;;;;;;8.20;5.00;;;;;;;;;;6105743;23;21121;-84
2024/01/16 04:09:59;;;;;;;8.83;5.40;;;;;;;;;;6081025;23;20976;-89
2024/01/16 04:12:39;;;;;;;6.43;5.70;;;;;;;;;;6080689;23;20409;-89
2024/01/16 04:15:09;;;;;;;7.30;5.00;;;;;;;;;;6080987;23;20855;-88
2024/01/16 04:17:39;;;;;;;9.70;6.10;;;;;;;;;;6104522;23;20493;-88
2024/01/16 04:20:07;;;;;;;6.17;5.60;;;;;;;;;;6080802;23;20448;-88
2024/01/16 04:22:38;;;;;;;13.67;5.80;;;;;;;;;;6080340;23;20849;-88
2024/01/16 04:25:09;;;;;;;7.63;5.30;;;;;;;;;;6081635;23;20452;-89
2024/01/16 04:27:39;;;;;;;7.07;5.40;;;;;;;;;;6103806;23;20501;-88
2024/01/16 04:30:09;;;;;;;8.33;6.73;;;;;;;;;;6081524;23;20440;-88
2024/01/16 04:32:43;;;;;;;12.90;6.00;;;;;;;;;;6106350;23;20398;-88
2024/01/16 04:35:19;;;;;;;10.67;5.80;;;;;;;;;;6082907;23;20535;-89
2024/01/16 04:37:49;;;;;;;9.40;5.10;;;;;;;;;;6083872;23;20401;-89
2024/01/16 04:40:21;;;;;;;5.87;4.63;;;;;;;;;;6086556;23;20424;-88
2024/01/16 04:42:49;;;;;;;9.53;5.70;;;;;;;;;;6080803;23;20463;-87
2024/01/16 04:45:16;;;;;;;10.77;5.60;;;;;;;;;;6084604;23;20464;-87
2024/01/16 04:47:44;;;;;;;9.13;4.90;;;;;;;;;;6077517;23;21273;-88
2024/01/16 04:50:11;;;;;;;12.10;5.30;;;;;;;;;;6078296;23;20441;-88
2024/01/16 04:52:39;;;;;;;8.30;5.17;;;;;;;;;;6078432;23;20423;-88
2024/01/16 04:55:07;;;;;;;8.77;4.70;;;;;;;;;;6077349;23;20448;-88
2024/01/16 04:57:36;;;;;;;4.47;4.07;;;;;;;;;;6077411;23;20743;-88
2024/01/16 05:00:06;;;;;;;11.00;4.00;;;;;;;;;;6077650;23;20480;-89
2024/01/16 05:02:42;;;;;;;7.50;4.23;;;;;;;;;;6082238;23;20408;-89
2024/01/16 05:05:12;;;;;;;5.00;3.70;;;;;;;;;;6076829;23;20479;-88
2024/01/16 05:07:40;;;;;;;5.73;3.67;;;;;;;;;;6078932;23;20457;-87
2024/01/16 05:10:12;;;;;;;6.00;4.10;;;;;;;;;;6079606;23;20437;-89
2024/01/16 05:12:41;;;;;;;7.73;4.20;;;;;;;;;;6078023;23;20464;-87
2024/01/16 05:15:14;;;;;;;4.93;3.53;;;;;;;;;;6076422;23;20501;-88
2024/01/16 05:17:44;;;;;;;9.40;4.47;;;;;;;;;;6089217;23;20961;-89
2024/01/16 05:20:14;;;;;;;5.57;3.57;;;;;;;;;;6108214;23;20473;-87
2024/01/16 05:22:45;;;;;;;11.80;4.70;;;;;;;;;;6103079;23;20417;-89
2024/01/16 05:25:12;;;;;;;8.90;4.47;;;;;;;;;;6104390;23;20432;-88
2024/01/16 05:27:40;;;;;;;7.87;4.73;;;;;;;;;;6102835;23;20417;-87
2024/01/16 05:30:09;;;;;;;11.10;4.70;;;;;;;;;;6074713;23;20956;-87
2024/01/16 05:32:39;;;;;;;8.10;4.80;;;;;;;;;;6077429;23;20731;-87
2024/01/16 05:35:06;;;;;;;11.37;5.27;;;;;;;;;;6076603;23;20398;-87
2024/01/16 05:37:34;;;;;;;7.27;3.77;;;;;;;;;;6075227;23;20449;-87
2024/01/16 05:40:03;;;;;;;6.77;4.13;;;;;;;;;;6076712;23;20449;-88
2024/01/16 05:42:32;;;;;;;5.60;4.47;;;;;;;;;;6092054;23;20441;-88
2024/01/16 05:45:02;;;;;;;10.13;4.33;;;;;;;;;;6092867;23;20404;-88
2024/01/16 05:47:30;;;;;;;5.67;4.50;;;;;;;;;;6087216;23;20503;-88
2024/01/16 05:49:58;;;;;;;6.10;4.80;;;;;;;;;;6078808;23;20947;-88
2024/01/16 05:52:27;;;;;;;6.50;4.70;;;;;;;;;;6076441;23;20424;-86
2024/01/16 05:54:57;;;;;;;8.07;4.43;;;;;;;;;;6074379;23;20503;-87
2024/01/16 05:57:24;;;;;;;10.33;4.73;;;;;;;;;;6074208;23;20452;-86
2024/01/16 05:59:51;;;;;;;6.83;5.20;;;;;;;;;;6098419;23;20465;-87
2024/01/16 06:02:18;;;;;;;8.13;4.53;;;;;;;;;;6074237;23;20409;-86
2024/01/16 06:04:46;;;;;;;9.17;4.93;;;;;;;;;;6074007;23;20465;-87
2024/01/16 06:07:13;;;;;;;8.93;4.80;;;;;;;;;;6080830;23;20464;-89
2024/01/16 06:09:40;;;;;;;8.13;4.23;;;;;;;;;;6104599;23;20452;-87
2024/01/16 06:12:08;;;;;;;5.67;4.20;;;;;;;;;;6101740;23;20420;-86
2024/01/16 06:14:35;;;;;;;6.97;5.00;;;;;;;;;;6102510;23;20440;-86
2024/01/16 06:17:03;;;;;;;5.97;4.60;;;;;;;;;;6076798;23;20978;-86
2024/01/16 06:19:30;;;;;;;9.17;4.20;;;;;;;;;;6073453;23;20445;-86
2024/01/16 06:21:59;;;;;;;10.83;5.00;;;;;;;;;;6074418;23;20678;-86
2024/01/16 06:24:26;;;;;;;7.30;5.27;;;;;;;;;;6073922;23;20412;-86
2024/01/16 06:26:53;;;;;;;10.90;3.93;;;;;;;;;;6104818;23;20478;-88
2024/01/16 06:29:20;;;;;;;8.60;4.63;;;;;;;;;;6094024;23;20438;-84
2024/01/16 06:31:57;;;;;;;7.37;4.10;;;;;;;;;;6097638;23;20452;-87
2024/01/16 06:34:24;;;;;;;8.93;5.57;;;;;;;;;;6097277;23;20408;-86
2024/01/16 06:36:52;;;;;;;10.90;4.73;;;;;;;;;;6085614;23;20441;-86
2024/01/16 06:39:19;;;;;;;7.17;4.10;;;;;;;;;;6079282;23;20497;-85
2024/01/16 06:41:46;;;;;;;5.67;4.60;;;;;;;;;;6103427;23;20416;-86
2024/01/16 06:44:14;;;;;;;8.57;4.50;;;;;;;;;;6104791;23;20407;-86
2024/01/16 06:46:41;;;;;;;7.40;4.50;;;;;;;;;;6078073;23;20421;-86
2024/01/16 06:49:11;;;;;;;5.80;3.70;;;;;;;;;;6103588;23;20449;-87
2024/01/16 06:51:38;;;;;;;4.17;3.67;;;;;;;;;;6101137;23;20503;-87
2024/01/16 06:54:05;;;;;;;5.40;3.97;;;;;;;;;;6078236;23;20500;-87
2024/01/16 06:56:32;;;;;;;9.63;3.30;;;;;;;;;;6107530;23;20445;-88
2024/01/16 06:59:00;;;;;;;6.90;3.77;;;;;;;;;;6109199;23;20485;-88
2024/01/16 07:01:27;;;;;;;7.80;4.60;;;;;;;;;;6108292;23;20441;-87
2024/01/16 07:03:54;;;;;;;8.17;3.50;;;;;;;;;;6083380;23;20437;-87
2024/01/16 07:06:21;;;;;;;8.77;3.93;;;;;;;;;;6080587;23;20751;-88
2024/01/16 07:08:49;;;;;;;4.33;2.80;;;;;;;;;;6101144;23;20433;-87
2024/01/16 07:11:17;;;;;;;5.10;3.70;;;;;;;;;;6076515;23;20414;-88
2024/01/16 07:13:44;;;;;;;7.57;3.70;;;;;;;;;;6077238;23;20421;-87
2024/01/16 07:16:14;;;;;;;5.97;3.87;;;;;;;;;;6077023;23;20445;-88
2024/01/16 07:18:44;;;;;;;6.13;2.80;;;;;;;;;;6077795;23;20454;-88
2024/01/16 07:21:18;;;;;;;3.83;2.70;;;;;;;;;;6077389;23;20414;-87
2024/01/16 07:23:45;;;;;;;6.37;3.13;;;;;;;;;;6078702;23;20409;-88
2024/01/16 07:26:12;;;;;;;5.80;3.67;;;;;;;;;;6094652;23;20425;-88
2024/01/16 07:28:40;;;;;;;6.30;3.00;;;;;;;;;;6101594;23;20499;-86
2024/01/16 07:31:07;;;;;;;4.90;2.87;;;;;;;;;;6102864;23;20500;-86
2024/01/16 07:33:34;;;;;;;7.93;3.43;;;;;;;;;;6104227;23;20447;-88
2024/01/16 07:36:04;;;;;;;4.23;2.60;;;;;;;;;;6077903;23;20596;-87
2024/01/16 07:38:34;;;;;;;10.43;3.33;;;;;;;;;;6080209;23;20453;-89
2024/01/16 07:41:01;;;;;;;7.13;2.80;;;;;;;;;;6107179;23;20445;-87
2024/01/16 07:43:29;;;;;;;5.93;3.57;;;;;;;;;;6083663;23;20410;-88
2024/01/16 07:45:56;;;;;;;8.23;3.10;;;;;;;;;;6092106;23;20441;-88
2024/01/16 07:48:24;;;;;;;4.03;2.30;;;;;;;;;;6083907;23;20968;-86
2024/01/16 07:50:51;;;;;;;7.33;3.07;;;;;;;;;;6104704;23;20423;-87
2024/01/16 07:53:19;;;;;;;4.10;2.87;;;;;;;;;;6078601;23;20676;-87
2024/01/16 07:55:46;;;;;;;5.77;2.60;;;;;;;;;;6076498;23;20507;-86
2024/01/16 07:58:13;;;;;;;4.97;2.13;;;;;;;;;;6075770;23;20446;-88
2024/01/16 08:00:41;;;;;;;2.90;2.50;;;;;;;;;;6097577;23;20430;-88
2024/01/16 08:03:12;;;;;;;4.33;2.37;;;;;;;;;;6075036;23;20445;-87
2024/01/16 08:05:39;;;;;;;6.57;2.27;;;;;;;;;;6073972;23;20441;-88
2024/01/16 08:08:10;;;;;;;7.30;3.10;;;;;;;;;;6074142;23;20924;-87
2024/01/16 08:10:37;;;;;;;5.00;2.33;;;;;;;;;;6072777;23;20478;-87
2024/01/16 08:13:04;;;;;;;4.47;2.50;;;;;;;;;;6100765;23;20482;-86
2024/01/16 08:15:34;;;;;;;3.50;1.93;;;;;;;;;;6076702;23;20424;-86
2024/01/16 08:18:04;;;;;;;4.10;2.70;;;;;;;;;;6075786;23;20456;-86
2024/01/16 08:20:32;;;;;;;3.10;2.10;;;;;;;;;;6075851;23;20433;-86
2024/01/16 08:22:59;;;;;;;3.87;2.60;;;;;;;;;;6101150;23;20511;-87
2024/01/16 08:25:26;;;;;;;4.53;2.23;;;;;;;;;;6100021;23;20448;-88
2024/01/16 08:27:53;;;;;;;5.57;2.43;;;;;;;;;;6114565;23;20407;-89
2024/01/16 08:30:20;;;;;;;5.33;2.20;;;;;;;;;;6096133;23;20461;-89
2024/01/16 08:32:49;;;;;;;2.50;1.93;;;;;;;;;;6122432;23;20406;-88
2024/01/16 08:35:17;;;;;;;5.80;2.87;;;;;;;;;;6123116;23;20456;-88
2024/01/16 08:37:44;;;;;;;6.20;2.27;;;;;;;;;;6120763;23;20468;-87
2024/01/16 08:40:14;;;;;;;3.33;1.80;;;;;;;;;;6090661;23;20434;-86
2024/01/16 08:42:42;;;;;;;4.20;2.30;;;;;;;;;;6081291;23;20404;-85
2024/01/16 08:45:11;;;;;;;5.13;2.40;;;;;;;;;;6081231;23;20394;-90
2024/01/16 08:47:38;;;;;;;9.63;2.23;;;;;;;;;;6112878;23;20468;-85
2024/01/16 08:50:06;;;;;;;6.77;2.50;;;;;;;;;;6078367;23;20496;-86
2024/01/16 08:52:33;;;;;;;12.13;3.60;;;;;;;;;;6106763;23;20506;-85
2024/01/16 08:55:01;;;;;;;2.83;2.57;;;;;;;;;;6104212;23;20432;-85
2024/01/16 08:57:28;;;;;;;8.13;2.70;;;;;;;;;;6077182;23;20469;-87
2024/01/16 08:59:57;;;;;;;5.67;2.40;;;;;;;;;;6080901;23;20433;-87
2024/01/16 09:02:28;;;;;;;7.30;2.13;;;;;;;;;;6082925;23;20425;-87
2024/01/16 09:05:04;;;;;;;10.93;3.23;;;;;;;;;;6111490;23;20453;-88
2024/01/16 09:07:32;;;;;;;7.90;2.30;;;;;;;;;;6081442;23;20455;-87
2024/01/16 09:10:18;;;;;;;5.30;2.87;;;;;;;;;;6080996;23;20438;-87
2024/01/16 09:12:49;;;;;;;6.00;2.40;;;;;;;;;;6078059;23;20830;-87
2024/01/16 09:15:17;;;;;;;5.57;2.87;;;;;;;;;;6079269;23;20418;-87
2024/01/16 09:17:46;;;;;;;7.67;2.27;;;;;;;;;;6107096;23;20842;-89
2024/01/16 09:20:17;;;;;;;5.13;2.33;;;;;;;;;;6082070;23;20497;-86
2024/01/16 09:22:44;;;;;;;7.70;2.60;;;;;;;;;;6080453;23;20606;-86
2024/01/16 09:25:11;;;;;;;7.83;3.40;;;;;;;;;;6105909;23;20442;-87
2024/01/16 09:27:39;;;;;;;3.60;1.90;;;;;;;;;;6081531;23;20704;-87
2024/01/16 09:30:07;;;;;;;5.10;2.40;;;;;;;;;;6084831;23;20424;-87
2024/01/16 09:32:35;;;;;;;26.63;3.37;;;;;;;;;;6105234;23;20493;-87
2024/01/16 09:35:04;;;;;;;4.13;1.90;;;;;;;;;;6083322;23;20421;-87
2024/01/16 09:37:31;;;;;;;3.57;2.13;;;;;;;;;;6080353;23;20453;-85
2024/01/16 09:39:58;;;;;;;7.90;3.70;;;;;;;;;;6075262;23;20536;-86
2024/01/16 09:42:26;;;;;;;10.10;2.37;;;;;;;;;;6102240;23;20406;-84
2024/01/16 09:44:55;;;;;;;3.67;2.77;;;;;;;;;;6078120;23;20405;-85
2024/01/16 09:47:26;;;;;;;7.07;3.57;;;;;;;;;;6088158;23;20402;-85
2024/01/16 09:49:54;;;;;;;4.70;2.10;;;;;;;;;;6089255;23;20904;-85
2024/01/16 09:52:23;;;;;;;3.40;2.50;;;;;;;;;;6105215;23;20413;-86
2024/01/16 09:54:56;;;;;;;6.47;2.60;;;;;;;;;;6103475;23;20390;-85
2024/01/16 09:57:26;;;;;;;7.77;2.27;;;;;;;;;;6080868;23;20445;-85
2024/01/16 10:00:11;;;;;;;5.40;3.43;;;;;;;;;;6081027;23;20432;-86
2024/01/16 10:02:41;;;;;;;8.57;2.73;;;;;;;;;;6077642;23;20417;-86
2024/01/16 10:05:12;;;;;;;8.97;3.67;;;;;;;;;;6104638;23;20500;-85
2024/01/16 10:08:02;;;;;;;4.53;2.43;;;;;;;;;;6087011;23;20446;-85
2024/01/16 10:10:35;;;;;;;5.50;2.53;;;;;;;;;;6084836;23;20417;-86
2024/01/16 10:13:09;;;;;;;6.47;2.50;;;;;;;;;;6113704;23;20424;-84
2024/01/16 10:15:36;;;;;;;4.20;2.20;;;;;;;;;;6082212;23;21180;-84
2024/01/16 10:18:03;;;;;;;4.23;1.97;;;;;;;;;;6082046;23;20453;-84
2024/01/16 10:20:40;;;;;;;3.77;2.70;;;;;;;;;;6082050;23;20426;-83
2024/01/16 10:23:09;;;;;;;4.50;2.77;;;;;;;;;;6086838;23;20478;-85
2024/01/16 10:25:44;;;;;;;4.70;2.30;;;;;;;;;;6111549;23;20501;-84
2024/01/16 10:28:39;;;;;;;5.23;2.07;;;;;;;;;;6090515;23;20453;-84
2024/01/16 10:31:08;;;;;;;4.47;2.10;;;;;;;;;;6093462;23;20793;-86
2024/01/16 10:33:38;;;;;;;4.80;2.53;;;;;;;;;;6119872;23;20405;-84
2024/01/16 10:36:10;;;;;;;5.50;2.60;;;;;;;;;;6096118;23;20401;-86
2024/01/16 10:38:38;;;;;;;6.70;3.63;;;;;;;;;;6094176;23;20535;-83
2024/01/16 10:41:10;;;;;;;3.27;2.20;;;;;;;;;;6087491;23;20417;-83
2024/01/16 10:43:38;;;;;;;4.93;2.23;;;;;;;;;;6114606;23;20429;-83
2024/01/16 10:46:17;;;;;;;2.17;2.03;;;;;;;;;;6083778;23;20416;-83
2024/01/16 10:48:44;;;;;;;5.93;2.50;;;;;;;;;;6085828;23;20429;-83
2024/01/16 10:51:14;;;;;;;6.33;2.33;;;;;;;;;;6109484;23;20727;-84
2024/01/16 10:53:46;;;;;;;4.70;2.17;;;;;;;;;;6067875;23;20401;-84
2024/01/16 10:56:15;;;;;;;4.50;2.53;;;;;;;;;;6094442;23;20414;-87
2024/01/16 10:58:43;;;;;;;9.77;2.60;;;;;;;;;;6095613;23;20543;-85
2024/01/16 11:01:16;;;;;;;8.20;3.67;;;;;;;;;;6096032;23;20405;-87
2024/01/16 11:03:43;;;;;;;4.57;1.93;;;;;;;;;;6096291;23;20532;-84
2024/01/16 11:06:11;;;;;;;4.17;2.40;;;;;;;;;;6096541;23;20428;-86
2024/01/16 11:08:39;;;;;;;4.17;2.17;;;;;;;;;;6123501;23;20417;-83
2024/01/16 11:11:07;;;;;;;6.57;2.13;;;;;;;;;;6098727;23;20409;-85
2024/01/16 11:13:35;;;;;;;16.27;3.60;;;;;;;;;;6098742;23;20513;-84
2024/01/16 11:16:07;;;;;;;3.40;2.30;;;;;;;;;;6096720;23;20406;-86
2024/01/16 11:18:35;;;;;;;6.00;2.40;;;;;;;;;;6120291;23;20466;-85
2024/01/16 11:21:13;;;;;;;10.03;2.90;;;;;;;;;;6091616;23;20473;-85
2024/01/16 11:23:45;;;;;;;6.20;2.47;;;;;;;;;;6087824;23;20412;-83
2024/01/16 11:26:32;;;;;;;4.67;2.20;;;;;;;;;;6116551;23;20476;-83
2024/01/16 11:29:01;;;;;;;6.70;3.27;;;;;;;;;;6086150;23;20441;-84
2024/01/16 11:31:32;;;;;;;11.63;2.13;;;;;;;;;;6082758;23;20421;-83
2024/01/16 11:33:59;;;;;;;6.67;2.70;;;;;;;;;;6080753;23;20418;-86
2024/01/16 11:36:44;;;;;;;5.50;2.57;;;;;;;;;;6104711;23;20429;-85
2024/01/16 11:39:19;;;;;;;6.13;2.50;;;;;;;;;;6082130;23;20440;-83
2024/01/16 11:41:53;;;;;;;2.27;2.07;;;;;;;;;;6078927;23;20410;-84
2024/01/16 11:44:39;;;;;;;6.60;2.87;;;;;;;;;;6113591;23;20417;-85
2024/01/16 11:47:08;;;;;;;9.53;2.30;;;;;;;;;;6083386;23;20424;-85
2024/01/16 11:49:37;;;;;;;8.10;3.03;;;;;;;;;;6088337;23;20441;-85
2024/01/16 11:52:04;;;;;;;8.60;2.33;;;;;;;;;;6086378;23;20450;-86
2024/01/16 11:54:31;;;;;;;4.50;2.77;;;;;;;;;;6109538;23;20423;-84
2024/01/16 11:56:58;;;;;;;7.30;3.17;;;;;;;;;;6084364;23;20805;-84
2024/01/16 11:59:46;;;;;;;4.07;2.57;;;;;;;;;;6082827;23;20461;-85
2024/01/16 12:02:17;;;;;;;4.83;3.60;;;;;;;;;;6109064;23;20390;-85
2024/01/16 12:04:53;;;;;;;2.90;2.30;;;;;;;;;;6109493;23;20392;-85
2024/01/16 12:07:20;;;;;;;2.63;2.10;;;;;;;;;;6084105;23;20415;-85
2024/01/16 12:09:49;;;;;;;5.67;2.43;;;;;;;;;;6082149;23;20439;-84
2024/01/16 12:12:18;;;;;;;6.93;2.40;;;;;;;;;;6082042;23;20423;-85
2024/01/16 12:14:55;;;;;;;6.47;3.20;;;;;;;;;;6109676;23;20447;-85
2024/01/16 12:17:22;;;;;;;4.77;2.30;;;;;;;;;;6084753;23;20559;-85
2024/01/16 12:19:49;;;;;;;8.10;3.40;;;;;;;;;;6108262;23;20459;-84
2024/01/16 12:22:22;;;;;;;4.70;3.20;;;;;;;;;;6084199;23;20405;-84
2024/01/16 12:24:56;;;;;;;5.53;2.17;;;;;;;;;;6084933;23;20456;-83
2024/01/16 12:27:23;;;;;;;7.47;2.93;;;;;;;;;;6082078;23;20405;-85
2024/01/16 12:30:04;;;;;;;8.10;3.90;;;;;;;;;;6081578;23;20465;-85
2024/01/16 12:32:33;;;;;;;3.93;2.33;;;;;;;;;;6080629;23;20407;-83
2024/01/16 12:35:00;;;;;;;7.23;2.70;;;;;;;;;;6080610;23;20468;-84
2024/01/16 12:37:28;;;;;;;3.33;2.57;;;;;;;;;;6081083;23;20455;-83
2024/01/16 12:39:57;;;;;;;4.50;2.90;;;;;;;;;;6106483;23;20465;-84
2024/01/16 12:42:26;;;;;;;3.10;2.13;;;;;;;;;;6107489;23;20415;-82
2024/01/16 12:44:54;;;;;;;3.57;3.27;;;;;;;;;;6081101;23;20442;-84
2024/01/16 12:47:23;;;;;;;4.43;2.90;;;;;;;;;;6080475;23;20528;-84
2024/01/16 12:49:50;;;;;;;2.77;1.97;;;;;;;;;;6107521;23;20426;-85
2024/01/16 12:52:24;;;;;;;4.17;2.40;;;;;;;;;;6082207;23;20399;-85
2024/01/16 12:55:00;;;;;;;6.70;2.90;;;;;;;;;;6084553;23;20391;-83
2024/01/16 12:57:29;;;;;;;6.47;3.40;;;;;;;;;;6081924;23;20464;-85
2024/01/16 12:59:57;;;;;;;4.50;2.47;;;;;;;;;;6082809;23;20514;-84
2024/01/16 13:02:25;;;;;;;5.80;2.60;;;;;;;;;;6083156;23;20426;-85
2024/01/16 13:04:57;;;;;;;5.57;2.70;;;;;;;;;;6082684;23;20414;-83
2024/01/16 13:07:25;;;;;;;5.17;2.47;;;;;;;;;;6109529;23;20400;-84
2024/01/16 13:10:15;;;;;;;6.10;2.73;;;;;;;;;;6110108;23;20441;-85
2024/01/16 13:12:43;;;;;;;4.80;2.60;;;;;;;;;;6108648;23;20508;-84
2024/01/16 13:15:16;;;;;;;6.00;3.10;;;;;;;;;;6109822;23;20401;-85
2024/01/16 13:17:44;;;;;;;4.00;2.87;;;;;;;;;;6109714;23;20834;-86
2024/01/16 13:20:13;;;;;;;6.10;2.50;;;;;;;;;;6084598;23;20452;-85
2024/01/16 13:22:42;;;;;;;7.30;2.60;;;;;;;;;;6109265;23;20414;-85
2024/01/16 13:25:11;;;;;;;2.60;2.03;;;;;;;;;;6084693;23;20464;-83
2024/01/16 13:27:38;;;;;;;9.30;3.03;;;;;;;;;;6107811;23;20427;-83
2024/01/16 13:30:06;;;;;;;4.70;2.80;;;;;;;;;;6108634;23;20440;-85
2024/01/16 13:32:36;;;;;;;5.53;2.50;;;;;;;;;;6083815;23;20413;-84
2024/01/16 13:35:07;;;;;;;5.53;3.27;;;;;;;;;;6083403;23;20426;-85
2024/01/16 13:37:37;;;;;;;5.03;3.00;;;;;;;;;;6080560;23;20443;-86
2024/01/16 13:40:18;;;;;;;7.17;3.37;;;;;;;;;;6108176;23;20437;-86
2024/01/16 13:42:47;;;;;;;3.97;2.33;;;;;;;;;;6083874;23;20405;-86
2024/01/16 13:45:18;;;;;;;6.03;3.10;;;;;;;;;;6092111;23;20410;-87
2024/01/16 13:47:45;;;;;;;4.50;2.60;;;;;;;;;;6089238;23;20456;-86
2024/01/16 13:50:13;;;;;;;4.40;2.70;;;;;;;;;;6113753;23;20470;-86
2024/01/16 13:52:42;;;;;;;9.83;2.60;;;;;;;;;;6116079;23;20418;-84
2024/01/16 13:55:11;;;;;;;5.20;3.00;;;;;;;;;;6084098;23;20454;-87
2024/01/16 13:57:38;;;;;;;6.37;2.97;;;;;;;;;;6079143;23;20421;-85
2024/01/16 14:00:13;;;;;;;5.80;3.30;;;;;;;;;;6101467;23;20443;-85
2024/01/16 14:02:43;;;;;;;3.90;3.00;;;;;;;;;;6086296;23;20697;-86
2024/01/16 14:05:18;;;;;;;5.60;2.93;;;;;;;;;;6085905;23;20437;-85
2024/01/16 14:07:46;;;;;;;6.20;4.00;;;;;;;;;;6109989;23;20512;-86
2024/01/16 14:10:14;;;;;;;9.33;3.23;;;;;;;;;;6110077;23;20445;-86
2024/01/16 14:12:46;;;;;;;9.60;2.90;;;;;;;;;;6088535;23;20406;-85
2024/01/16 14:15:18;;;;;;;8.60;3.53;;;;;;;;;;6112180;23;20413;-85
2024/01/16 14:17:47;;;;;;;3.80;2.80;;;;;;;;;;6085794;23;20374;-86
2024/01/16 14:20:22;;;;;;;4.93;3.30;;;;;;;;;;6084517;23;20476;-85
2024/01/16 14:22:59;;;;;;;4.00;3.17;;;;;;;;;;6085890;23;20417;-86
2024/01/16 14:25:26;;;;;;;4.93;3.10;;;;;;;;;;6082599;23;20400;-87
2024/01/16 14:27:57;;;;;;;2.73;2.37;;;;;;;;;;6083588;23;20417;-87
2024/01/16 14:30:30;;;;;;;14.03;4.10;;;;;;;;;;6110899;23;20393;-84
2024/01/16 14:32:58;;;;;;;6.07;2.37;;;;;;;;;;6111535;23;20428;-85
2024/01/16 14:35:29;;;;;;;6.50;3.10;;;;;;;;;;6085206;23;20503;-85
2024/01/16 14:38:01;;;;;;;3.57;2.80;;;;;;;;;;6086757;23;20475;-86
2024/01/16 14:40:34;;;;;;;5.20;3.20;;;;;;;;;;6110895;23;20393;-85
2024/01/16 14:43:04;;;;;;;5.10;2.93;;;;;;;;;;6110003;23;20427;-83
2024/01/16 14:45:31;;;;;;;11.97;4.00;;;;;;;;;;6086411;23;20417;-85
2024/01/16 14:47:59;;;;;;;4.87;2.90;;;;;;;;;;6089051;23;20423;-83
2024/01/16 14:50:30;;;;;;;3.80;2.53;;;;;;;;;;6094928;23;20433;-84
2024/01/16 14:53:03;;;;;;;6.43;3.43;;;;;;;;;;6096956;23;20407;-86
2024/01/16 14:55:33;;;;;;;5.70;3.40;;;;;;;;;;6121809;23;20457;-85
2024/01/16 14:58:08;;;;;;;8.47;3.40;;;;;;;;;;6121799;23;20456;-85